ORLYDB

World´s safest download option! Anonymous Downloads & Identity Protection!
2014-07-18 23:36:21 XBOX360 Magic.2015.XBLA.XBOX360-LiGHTFORCE DL 1024.0MB | 10F
2014-07-18 23:36:21 XBOX360 Abyss.Odyssey.XBLA.XBOX360-LiGHTFORCE DL 600.0MB | 6F
2014-07-12 03:06:57 XBOX360 2014_FIFA_World_Cup_Brazil_JPN_XBOX360-HR DL 7966.0MB | 86F
2014-07-03 18:41:11 XBOX360 Guacamelee.Super.Turbo.Championship.Edition.XBLA.XBOX360-LiGHTFORCE DL 800.0MB | 8F
2014-07-03 18:41:10 XBOX360 Valiant.Hearts.The.Great.War.XBLA.XBOX360-LiGHTFORCE DL 1177.9MB | 13F
2014-07-03 18:41:10 XBOX360 Putty.Squad.XBLA.XBOX360-LiGHTFORCE DL 827.2MB | 9F
2014-06-29 08:05:13 XBOX360 Wolfenstein_The_New_Order_JPN_XBOX360-HR DL
2014-06-27 13:51:42 XBOX360 Saints.Row.IV.Game.of.the.Century.Edition.XBOX360-COMPLEX DL 14501.0MB | 156F
2014-06-27 06:15:24 XBOX360 Fallout_New_Vegas_Ultimate_Edition_JAP_XBOX360-GANT DL 13321.0MB | 144F
2014-06-24 15:56:45 XBOX360 Sniper.Elite.III.XBOX360-COMPLEX DL
2014-06-21 05:34:37 XBOX360 GRID.Autosport.REPACK.XBOX360-iMARS DL 8601.6MB | 84F
2014-06-21 00:48:21 XBOX360 GRID.Autosport.XBOX360-iMARS DL 7978.4MB | 84F grp.req_get.repack
2014-06-20 04:54:17 XBOX360 Transformers.Rise.of.The.Dark.Spark.XBOX360-COMPLEX DL 8018.0MB | 85F
2014-06-18 15:50:16 XBOX360 Tales.from.Space.Mutant.Blobs.Attack.XBLA.XBOX360-MoNGoLS DL 227.0MB | 5F
2014-06-17 14:34:36 XBOX360 Le.Tour.de.France.2014.PAL.XBOX360-COMPLEX DL 7577.6MB | 74F
2014-06-14 21:43:42 XBOX360 MotoGP.14.PAL.XBOX360-COMPLEX DL 7050.0MB | 76F
2014-06-14 03:03:10 XBOX360 Ken_no_Machi_no_Ihoujin_Shiro_no_Oukyuu_JPN_XBOX360-HR DL
2014-06-13 19:53:49 XBOX360 Blood.of.the.Werewolf.XBLA.XBOX360-MoNGoLS DL 1500.0MB | 18F
2014-06-12 21:18:29 XBOX360 Enemy.Front.German.PAL.XBOX360-UNLiMiTED DL
2014-06-10 11:19:18 XBOX360 Bullet_Soul_Infinite_Burst_JPN_RF_XBOX360-HR DL
2014-06-10 04:09:37 XBOX360 How.to.Train.Your.Dragon.2.PAL.XBOX360-iMARS DL 7475.2MB | 73F
2014-06-07 00:53:16 XBOX360 Titanfall_JPN_XBOX360-HR DL
2014-06-06 23:39:57 XBOX360 How.to.Train.Your.Dragon.2.NTSC.XBOX360-PROTON DL 7475.2MB | 73F
2014-06-06 10:03:16 XBOX360 Enemy_Front_XBOX360-PROTOCOL DL 7372.8MB | 72F
2014-06-01 20:51:45 XBOX360 WOLFENSTEiN.THE.NEW.ORDER.GERMAN.PAL.XBOX360.REPACK-SHiTONLYGERMAN DL 7689.0MB | 81F
2014-05-31 10:02:14 XBOX360 WOLFENSTEiN.THE.NEW.ORDER.GERMAN.PAL.XBOX360-SHiTONLYGERMAN DL 29980.3MB | 316F DVD2.incomplete_missing.r75_get.repack
2014-05-30 05:20:45 XBOX360 Murdered.Soul.Suspect.XBOX360-COMPLEX DL 7889.0MB | 83F
2014-05-23 05:24:04 XBOX360 Max.The.Curse.of.Brotherhood.XBLA.XBOX360-MoNGoLS DL 1400.0MB | 17F
2014-05-22 11:28:14 XBOX360 Watch.Dogs.XBOX360-COMPLEX DL 15516.0MB | 163F
2014-05-21 19:15:29 XBOX360 F1.2013.Complete.Edition.XBOX360-COMPLEX DL 7596.0MB | 82F
2014-05-16 21:20:15 XBOX360 Super.Time.Force.XBLA.XBOX360-MoNGoLS DL 558.8MB | 14F
2014-05-16 13:32:30 XBOX360 Wolfenstein.The.New.Order.Stealth.Fix.XBOX360-COMPLEX DL
2014-05-15 16:32:09 XBOX360 Wolfenstein.The.New.Order.XBOX360-COMPLEX DL
2014-05-07 22:25:10 XBOX360 Peggle.2.XBLA.XBOX360-LiGHTFORCE DL 747.0MB | 8F
2014-05-06 23:28:23 XBOX360 Dustforce.XBLA.XBOX360-LiGHTFORCE DL 179.9MB | 2F
2014-05-06 23:28:22 XBOX360 Child.of.Light.XBLA.XBOX360-LiGHTFORCE DL 1456.0MB | 16F
2014-05-05 17:32:58 XBOX360 Terraria.XBOX360-iNSOMNi DL 7680.0MB | 75F
2014-05-05 13:00:09 XBOX360 Gesen_Love_Plus_Pengo_JPN_RF_XBOX360-HR DL 7032.0MB | 74F
2014-05-04 22:33:59 XBOX360 Bound.by.Flame.XBOX360-SPARE DL 7168.0MB | 70F
2014-04-28 13:59:21 XBOX360 Zoo_Tycoon_JPN_XBOX360-HR DL 8204.0MB | 87F
2014-04-25 06:02:43 XBOX360 The.Amazing.Spider-Man.2.XBOX360-COMPLEX DL 8397.0MB | 82F
2014-04-24 01:46:56 XBOX360 Yu-Gi-Oh.Millennium.Duels.XBLA.XBOX360-MoNGoLS DL 469.6MB | 12F
2014-04-23 20:30:47 XBOX360 Defense.Technica.XBLA.XBOX360-MoNGoLS DL 210.3MB | 7F
2014-04-19 00:48:14 XBOX360 Borderlands_2_Head_Hunter_Pack_5_Son_of_Crawmerax_DLC_XBOX360-LiGHTFORCE DL 1332.9MB | 14F
2014-04-16 22:54:27 XBOX360 Trials.Fusion.XBLA.XBOX360-MoNGoLS DL 1600.0MB | 18F
2014-04-15 13:22:12 XBOX360 2014.FIFA.World.Cup.Brazil.XBOX360-COMPLEX DL 7819.1MB | 82F
2014-04-12 00:43:48 XBOX360 2014_FIFA_World_Cup_Brazil_USA_XBOX360-PROTOCOL DL 8704.0MB | 85F
2014-04-10 01:42:41 XBOX360 THE.LEGO.MOViE.ViDEOGAME.GERMAN.PAL.XBOX360-SHiTONLYGERMAN DL 7818.0MB | 82F
2014-04-09 09:11:41 XBOX360 Titanfall_XBOX360-iCON DL 27033.6MB | 81F
2014-04-05 01:43:37 XBOX360 LEGO.The.Hobbit.XBOX360-COMPLEX DL 7874.7MB | 83F
 ░                                                                      ░
 ▒                                                                      ▒
 ▓     Server Time:                               info@orlydb.com       ▓
 █░    2014-07-22 17:26:53                        Hide/Show header     ░█
 █▄                                                                    ▄█
 ▀█▄                            ░▄▄▄▄▄▄▄▄░                            ▄█▀
  ▀█▄▒                 ░▄▄█████████▀▀▀▀█████████▄▄░                 ▒▄█▀
   ▀██▄░░     ░▄▄██████████▀▀░              ░▀▀██████████▄▄░     ░░▄██▀
    ░▀███████████▀▀                                    ▀▀███████████▀░
        ▀▀▀░    █   ▄▄▄▄  ▄▄▄▄  ▄▄  ▄▄   ▄ ▄▄▄▄  ▄▄▄▄    █    ░▀▀▀
                ▓   ██  █ ██ ██ ██   █▄ ▄█ ██  █ ██ ██   ▓
                ▒   ▓█  █ ▓█▄██ ▓█    ▓██  ▓█  █ ▓█▄█▀   ▒
                ▓   ▓████ ▓█ █▄ ▓█▄▄▄ ▓██  ▓███▀ ▓█▄██   ▓
                █▄▄▄▄▄▄▄▄▄▄▄▄▄▄▄▄▄▄▄▄▄▄▄▄▄▄▄▄▄▄▄▄▄▄▄▄▄▄▄▄█